sensor_id;sensor_type;location;lat;lon;timestamp;pressure;altitude;pressure_sealevel;temperature;humidity
13705;BME280;6924;52.122;9.952;2022-11-09T00:00:38;99750.66;;;14.36;66.47
13705;BME280;6924;52.122;9.952;2022-11-09T00:03:06;99760.03;;;14.36;66.39
13705;BME280;6924;52.122;9.952;2022-11-09T00:05:33;99757.19;;;14.36;66.17
13705;BME280;6924;52.122;9.952;2022-11-09T00:07:59;99754.81;;;14.38;66.24
13705;BME280;6924;52.122;9.952;2022-11-09T00:10:26;99757.03;;;14.45;65.89
13705;BME280;6924;52.122;9.952;2022-11-09T00:12:52;99749.91;;;14.51;65.88
13705;BME280;6924;52.122;9.952;2022-11-09T00:15:19;99737.47;;;14.43;66.16
13705;BME280;6924;52.122;9.952;2022-11-09T00:17:45;99733.53;;;14.48;66.07
13705;BME280;6924;52.122;9.952;2022-11-09T00:20:13;99737.22;;;14.49;66.04
13705;BME280;6924;52.122;9.952;2022-11-09T00:22:40;99733.91;;;14.46;65.96
13705;BME280;6924;52.122;9.952;2022-11-09T00:25:07;99740.31;;;14.43;66.05
13705;BME280;6924;52.122;9.952;2022-11-09T00:27:34;99739.03;;;14.41;66.36
13705;BME280;6924;52.122;9.952;2022-11-09T00:30:00;99740.31;;;14.43;65.97
13705;BME280;6924;52.122;9.952;2022-11-09T00:32:27;99749.22;;;14.42;66.13
13705;BME280;6924;52.122;9.952;2022-11-09T00:34:53;99741.19;;;14.32;66.40
13705;BME280;6924;52.122;9.952;2022-11-09T00:37:21;99741.88;;;14.29;66.52
13705;BME280;6924;52.122;9.952;2022-11-09T00:39:48;99730.28;;;14.34;66.54
13705;BME280;6924;52.122;9.952;2022-11-09T00:42:14;99737.41;;;14.27;66.54
13705;BME280;6924;52.122;9.952;2022-11-09T00:44:41;99729.38;;;14.17;67.15
13705;BME280;6924;52.122;9.952;2022-11-09T00:47:07;99734.50;;;14.12;67.41
13705;BME280;6924;52.122;9.952;2022-11-09T00:49:34;99726.66;;;14.09;67.94
13705;BME280;6924;52.122;9.952;2022-11-09T00:52:00;99727.72;;;14.16;67.95
13705;BME280;6924;52.122;9.952;2022-11-09T00:54:28;99718.84;;;14.18;67.56
13705;BME280;6924;52.122;9.952;2022-11-09T00:56:54;99721.69;;;14.18;67.98
13705;BME280;6924;52.122;9.952;2022-11-09T00:59:21;99714.94;;;14.10;67.94
13705;BME280;6924;52.122;9.952;2022-11-09T01:01:47;99716.69;;;14.15;67.85
13705;BME280;6924;52.122;9.952;2022-11-09T01:04:14;99715.41;;;14.12;68.35
13705;BME280;6924;52.122;9.952;2022-11-09T01:06:40;99725.13;;;14.11;68.07
13705;BME280;6924;52.122;9.952;2022-11-09T01:09:07;99723.22;;;14.15;68.33
13705;BME280;6924;52.122;9.952;2022-11-09T01:11:35;99729.16;;;14.10;68.23
13705;BME280;6924;52.122;9.952;2022-11-09T01:14:02;99726.16;;;14.19;67.98
13705;BME280;6924;52.122;9.952;2022-11-09T01:16:28;99722.84;;;14.17;68.13
13705;BME280;6924;52.122;9.952;2022-11-09T01:18:56;99713.84;;;14.15;67.88
13705;BME280;6924;52.122;9.952;2022-11-09T01:21:24;99715.06;;;14.14;67.92
13705;BME280;6924;52.122;9.952;2022-11-09T01:23:51;99720.75;;;14.14;67.77
13705;BME280;6924;52.122;9.952;2022-11-09T01:26:17;99718.38;;;14.16;67.79
13705;BME280;6924;52.122;9.952;2022-11-09T01:28:45;99717.63;;;14.19;67.60
13705;BME280;6924;52.122;9.952;2022-11-09T01:31:14;99720.84;;;14.17;67.84
13705;BME280;6924;52.122;9.952;2022-11-09T01:33:41;99718.59;;;14.11;68.06
13705;BME280;6924;52.122;9.952;2022-11-09T01:36:09;99718.00;;;14.17;67.92
13705;BME280;6924;52.122;9.952;2022-11-09T01:38:37;99725.09;;;14.23;67.79
13705;BME280;6924;52.122;9.952;2022-11-09T01:41:04;99715.47;;;14.28;67.33
13705;BME280;6924;52.122;9.952;2022-11-09T01:43:32;99720.22;;;14.24;67.43
13705;BME280;6924;52.122;9.952;2022-11-09T01:46:03;99718.59;;;14.23;67.53
13705;BME280;6924;52.122;9.952;2022-11-09T01:48:39;99711.81;;;14.27;67.52
13705;BME280;6924;52.122;9.952;2022-11-09T01:51:11;99723.19;;;14.27;67.46
13705;BME280;6924;52.122;9.952;2022-11-09T01:53:42;99718.78;;;14.30;67.09
13705;BME280;6924;52.122;9.952;2022-11-09T01:56:12;99713.22;;;14.34;67.38
13705;BME280;6924;52.122;9.952;2022-11-09T01:58:44;99712.41;;;14.33;67.37
13705;BME280;6924;52.122;9.952;2022-11-09T02:01:14;99708.50;;;14.25;67.64
13705;BME280;6924;52.122;9.952;2022-11-09T02:03:47;99718.31;;;14.28;67.53
13705;BME280;6924;52.122;9.952;2022-11-09T02:06:17;99722.25;;;14.23;67.78
13705;BME280;6924;52.122;9.952;2022-11-09T02:08:46;99713.34;;;14.25;67.64
13705;BME280;6924;52.122;9.952;2022-11-09T02:11:15;99716.56;;;14.23;67.88
13705;BME280;6924;52.122;9.952;2022-11-09T02:13:45;99717.28;;;14.20;67.67
13705;BME280;6924;52.122;9.952;2022-11-09T02:16:14;99712.41;;;14.21;68.26
13705;BME280;6924;52.122;9.952;2022-11-09T02:18:47;99707.94;;;14.20;68.38
13705;BME280;6924;52.122;9.952;2022-11-09T02:21:17;99713.50;;;14.16;68.83
13705;BME280;6924;52.122;9.952;2022-11-09T02:23:43;99713.72;;;14.23;68.34
13705;BME280;6924;52.122;9.952;2022-11-09T02:26:14;99708.84;;;14.24;68.34
13705;BME280;6924;52.122;9.952;2022-11-09T02:28:43;99718.94;;;14.21;68.38
13705;BME280;6924;52.122;9.952;2022-11-09T02:31:11;99704.16;;;14.16;68.75
13705;BME280;6924;52.122;9.952;2022-11-09T02:33:42;99708.63;;;14.17;68.70
13705;BME280;6924;52.122;9.952;2022-11-09T02:36:09;99706.53;;;14.14;69.04
13705;BME280;6924;52.122;9.952;2022-11-09T02:38:36;99704.97;;;14.16;68.99
13705;BME280;6924;52.122;9.952;2022-11-09T02:41:03;99713.16;;;14.18;69.24
13705;BME280;6924;52.122;9.952;2022-11-09T02:43:30;99706.63;;;14.17;69.30
13705;BME280;6924;52.122;9.952;2022-11-09T02:45:56;99702.69;;;14.22;69.15
13705;BME280;6924;52.122;9.952;2022-11-09T02:48:23;99715.63;;;14.19;69.38
13705;BME280;6924;52.122;9.952;2022-11-09T02:50:49;99705.72;;;14.13;69.61
13705;BME280;6924;52.122;9.952;2022-11-09T02:53:16;99707.22;;;14.11;69.83
13705;BME280;6924;52.122;9.952;2022-11-09T02:55:44;99691.84;;;14.12;69.77
13705;BME280;6924;52.122;9.952;2022-11-09T02:58:10;99695.97;;;14.14;69.70
13705;BME280;6924;52.122;9.952;2022-11-09T03:00:37;99695.72;;;14.19;69.70
13705;BME280;6924;52.122;9.952;2022-11-09T03:03:04;99702.38;;;14.11;70.17
13705;BME280;6924;52.122;9.952;2022-11-09T03:05:31;99693.38;;;14.09;70.23
13705;BME280;6924;52.122;9.952;2022-11-09T03:07:57;99692.31;;;14.14;70.42
13705;BME280;6924;52.122;9.952;2022-11-09T03:10:26;99693.84;;;14.11;69.99
13705;BME280;6924;52.122;9.952;2022-11-09T03:12:54;99695.84;;;14.11;70.29
13705;BME280;6924;52.122;9.952;2022-11-09T03:15:20;99691.38;;;14.10;70.84
13705;BME280;6924;52.122;9.952;2022-11-09T03:17:47;99691.38;;;14.10;70.97
13705;BME280;6924;52.122;9.952;2022-11-09T03:20:13;99707.50;;;14.05;71.07
13705;BME280;6924;52.122;9.952;2022-11-09T03:22:40;99698.50;;;14.03;71.62
13705;BME280;6924;52.122;9.952;2022-11-09T03:25:07;99696.38;;;14.00;71.21
13705;BME280;6924;52.122;9.952;2022-11-09T03:27:34;99694.22;;;14.10;71.40
13705;BME280;6924;52.122;9.952;2022-11-09T03:30:02;99695.75;;;14.07;71.86
13705;BME280;6924;52.122;9.952;2022-11-09T03:32:29;99689.34;;;14.10;71.81
13705;BME280;6924;52.122;9.952;2022-11-09T03:34:55;99677.50;;;14.08;71.68
13705;BME280;6924;52.122;9.952;2022-11-09T03:37:22;99674.44;;;14.13;71.81
13705;BME280;6924;52.122;9.952;2022-11-09T03:39:48;99673.56;;;14.13;72.09
13705;BME280;6924;52.122;9.952;2022-11-09T03:42:15;99666.47;;;14.06;72.25
13705;BME280;6924;52.122;9.952;2022-11-09T03:44:41;99683.81;;;14.01;72.78
13705;BME280;6924;52.122;9.952;2022-11-09T03:47:09;99683.72;;;13.98;73.26
13705;BME280;6924;52.122;9.952;2022-11-09T03:49:35;99692.25;;;13.98;73.08
13705;BME280;6924;52.122;9.952;2022-11-09T03:52:03;99687.22;;;14.07;72.95
13705;BME280;6924;52.122;9.952;2022-11-09T03:54:29;99691.97;;;14.03;73.58
13705;BME280;6924;52.122;9.952;2022-11-09T03:56:56;99695.28;;;14.05;73.54
13705;BME280;6924;52.122;9.952;2022-11-09T03:59:22;99688.94;;;13.96;73.83
13705;BME280;6924;52.122;9.952;2022-11-09T04:01:49;99693.66;;;13.92;74.17
13705;BME280;6924;52.122;9.952;2022-11-09T04:04:17;99678.97;;;13.90;74.66
13705;BME280;6924;52.122;9.952;2022-11-09T04:06:43;99673.56;;;13.84;74.96
13705;BME280;6924;52.122;9.952;2022-11-09T04:09:10;99677.09;;;13.81;75.16
13705;BME280;6924;52.122;9.952;2022-11-09T04:11:36;99678.88;;;13.86;75.21
13705;BME280;6924;52.122;9.952;2022-11-09T04:14:03;99672.97;;;13.79;75.45
13705;BME280;6924;52.122;9.952;2022-11-09T04:16:29;99681.63;;;13.82;75.74
13705;BME280;6924;52.122;9.952;2022-11-09T04:18:56;99685.28;;;13.83;76.03
13705;BME280;6924;52.122;9.952;2022-11-09T04:21:23;99688.34;;;13.78;76.25
13705;BME280;6924;52.122;9.952;2022-11-09T04:23:50;99697.59;;;13.87;75.99
13705;BME280;6924;52.122;9.952;2022-11-09T04:26:18;99704.69;;;13.81;76.60
13705;BME280;6924;52.122;9.952;2022-11-09T04:28:44;99696.53;;;13.79;76.81
13705;BME280;6924;52.122;9.952;2022-11-09T04:31:11;99687.53;;;13.77;77.28
13705;BME280;6924;52.122;9.952;2022-11-09T04:33:37;99686.47;;;13.70;77.74
13705;BME280;6924;52.122;9.952;2022-11-09T04:36:04;99685.19;;;13.67;78.06
13705;BME280;6924;52.122;9.952;2022-11-09T04:38:33;99693.47;;;13.72;78.10
13705;BME280;6924;52.122;9.952;2022-11-09T04:41:01;99692.63;;;13.72;78.42
13705;BME280;6924;52.122;9.952;2022-11-09T04:43:28;99681.28;;;13.59;78.92
13705;BME280;6924;52.122;9.952;2022-11-09T04:45:58;99683.44;;;13.62;79.19
13705;BME280;6924;52.122;9.952;2022-11-09T04:48:24;99686.25;;;13.62;79.50
13705;BME280;6924;52.122;9.952;2022-11-09T04:50:51;99693.84;;;13.58;79.71
13705;BME280;6924;52.122;9.952;2022-11-09T04:53:18;99688.97;;;13.59;79.95
13705;BME280;6924;52.122;9.952;2022-11-09T04:55:46;99695.72;;;13.54;80.44
13705;BME280;6924;52.122;9.952;2022-11-09T04:58:12;99691.00;;;13.58;80.31
13705;BME280;6924;52.122;9.952;2022-11-09T05:00:39;99702.47;;;13.62;80.40
13705;BME280;6924;52.122;9.952;2022-11-09T05:03:06;99694.41;;;13.64;80.69
13705;BME280;6924;52.122;9.952;2022-11-09T05:05:33;99695.34;;;13.56;81.13
13705;BME280;6924;52.122;9.952;2022-11-09T05:08:01;99701.41;;;13.54;81.62
13705;BME280;6924;52.122;9.952;2022-11-09T05:10:27;99689.56;;;13.52;81.86
13705;BME280;6924;52.122;9.952;2022-11-09T05:12:59;99689.31;;;13.57;81.78
13705;BME280;6924;52.122;9.952;2022-11-09T05:15:27;99700.00;;;13.48;82.28
13705;BME280;6924;52.122;9.952;2022-11-09T05:17:54;99702.50;;;13.50;82.43
13705;BME280;6924;52.122;9.952;2022-11-09T05:20:20;99693.97;;;13.50;82.56
13705;BME280;6924;52.122;9.952;2022-11-09T05:22:49;99697.16;;;13.48;82.49
13705;BME280;6924;52.122;9.952;2022-11-09T05:25:34;99697.03;;;13.44;83.02
13705;BME280;6924;52.122;9.952;2022-11-09T05:28:01;99690.44;;;13.40;83.17
13705;BME280;6924;52.122;9.952;2022-11-09T05:30:28;99691.34;;;13.44;83.08
13705;BME280;6924;52.122;9.952;2022-11-09T05:32:54;99683.66;;;13.45;83.45
13705;BME280;6924;52.122;9.952;2022-11-09T05:35:21;99685.31;;;13.46;83.08
13705;BME280;6924;52.122;9.952;2022-11-09T05:37:48;99693.84;;;13.46;82.99
13705;BME280;6924;52.122;9.952;2022-11-09T05:40:16;99688.75;;;13.39;83.64
13705;BME280;6924;52.122;9.952;2022-11-09T05:42:43;99698.34;;;13.35;83.74
13705;BME280;6924;52.122;9.952;2022-11-09T05:45:13;99702.34;;;13.34;83.83
13705;BME280;6924;52.122;9.952;2022-11-09T05:47:41;99696.22;;;13.32;83.97
13705;BME280;6924;52.122;9.952;2022-11-09T05:50:11;99699.50;;;13.34;84.04
13705;BME280;6924;52.122;9.952;2022-11-09T05:52:37;99701.53;;;13.33;84.10
13705;BME280;6924;52.122;9.952;2022-11-09T05:55:05;99702.72;;;13.32;83.98
13705;BME280;6924;52.122;9.952;2022-11-09T05:57:31;99710.75;;;13.30;84.30
13705;BME280;6924;52.122;9.952;2022-11-09T05:59:58;99715.47;;;13.26;84.57
13705;BME280;6924;52.122;9.952;2022-11-09T06:02:29;99714.03;;;13.20;85.18
13705;BME280;6924;52.122;9.952;2022-11-09T06:04:55;99711.78;;;13.13;86.03
13705;BME280;6924;52.122;9.952;2022-11-09T06:07:22;99715.34;;;13.10;86.22
13705;BME280;6924;52.122;9.952;2022-11-09T06:09:48;99722.66;;;13.11;86.17
13705;BME280;6924;52.122;9.952;2022-11-09T06:12:15;99714.50;;;13.10;85.97
13705;BME280;6924;52.122;9.952;2022-11-09T06:14:41;99714.28;;;13.15;86.17
13705;BME280;6924;52.122;9.952;2022-11-09T06:17:08;99722.53;;;13.08;86.26
13705;BME280;6924;52.122;9.952;2022-11-09T06:19:36;99731.88;;;13.08;86.70
13705;BME280;6924;52.122;9.952;2022-11-09T06:22:02;99724.53;;;13.07;87.30
13705;BME280;6924;52.122;9.952;2022-11-09T06:24:29;99729.88;;;13.09;87.09
13705;BME280;6924;52.122;9.952;2022-11-09T06:26:56;99733.91;;;13.08;86.72
13705;BME280;6924;52.122;9.952;2022-11-09T06:29:22;99731.75;;;13.05;87.02
13705;BME280;6924;52.122;9.952;2022-11-09T06:31:49;99725.00;;;13.09;86.68
13705;BME280;6924;52.122;9.952;2022-11-09T06:34:15;99716.28;;;13.14;86.40
13705;BME280;6924;52.122;9.952;2022-11-09T06:36:43;99730.81;;;13.13;86.79
13705;BME280;6924;52.122;9.952;2022-11-09T06:39:10;99729.38;;;13.07;87.31
13705;BME280;6924;52.122;9.952;2022-11-09T06:41:36;99734.38;;;13.10;87.11
13705;BME280;6924;52.122;9.952;2022-11-09T06:44:03;99735.19;;;13.10;87.28
13705;BME280;6924;52.122;9.952;2022-11-09T06:46:30;99729.38;;;13.07;87.40
13705;BME280;6924;52.122;9.952;2022-11-09T06:48:57;99738.03;;;13.10;87.37
13705;BME280;6924;52.122;9.952;2022-11-09T06:51:24;99735.31;;;13.14;86.64
13705;BME280;6924;52.122;9.952;2022-11-09T06:53:52;99745.50;;;13.15;87.09
13705;BME280;6924;52.122;9.952;2022-11-09T06:56:18;99745.97;;;13.17;87.01
13705;BME280;6924;52.122;9.952;2022-11-09T06:58:45;99739.09;;;13.18;87.22
13705;BME280;6924;52.122;9.952;2022-11-09T07:01:14;99752.81;;;13.16;87.41
13705;BME280;6924;52.122;9.952;2022-11-09T07:03:42;99763.59;;;13.22;86.98
13705;BME280;6924;52.122;9.952;2022-11-09T07:06:09;99762.78;;;13.22;87.60
13705;BME280;6924;52.122;9.952;2022-11-09T07:08:37;99770.34;;;13.18;87.50
13705;BME280;6924;52.122;9.952;2022-11-09T07:11:05;99769.38;;;13.14;88.12
13705;BME280;6924;52.122;9.952;2022-11-09T07:13:33;99776.75;;;13.27;87.41
13705;BME280;6924;52.122;9.952;2022-11-09T07:16:00;99772.97;;;13.23;87.65
13705;BME280;6924;52.122;9.952;2022-11-09T07:18:26;99778.28;;;13.24;87.55
13705;BME280;6924;52.122;9.952;2022-11-09T07:20:53;99769.41;;;13.26;87.65
13705;BME280;6924;52.122;9.952;2022-11-09T07:23:19;99773.34;;;13.34;87.15
13705;BME280;6924;52.122;9.952;2022-11-09T07:25:46;99774.19;;;13.34;87.41
13705;BME280;6924;52.122;9.952;2022-11-09T07:28:14;99765.53;;;13.31;87.32
13705;BME280;6924;52.122;9.952;2022-11-09T07:30:40;99767.56;;;13.30;87.50
13705;BME280;6924;52.122;9.952;2022-11-09T07:33:12;99771.47;;;13.38;87.09
13705;BME280;6924;52.122;9.952;2022-11-09T07:35:39;99773.00;;;13.35;87.24
13705;BME280;6924;52.122;9.952;2022-11-09T07:38:06;99770.66;;;13.37;87.27
13705;BME280;6924;52.122;9.952;2022-11-09T07:40:33;99768.03;;;13.44;87.05
13705;BME280;6924;52.122;9.952;2022-11-09T07:43:00;99774.81;;;13.52;86.75
13705;BME280;6924;52.122;9.952;2022-11-09T07:45:28;99764.88;;;13.58;86.68
13705;BME280;6924;52.122;9.952;2022-11-09T07:47:55;99775.41;;;13.70;86.26
13705;BME280;6924;52.122;9.952;2022-11-09T07:50:22;99772.91;;;13.81;86.16
13705;BME280;6924;52.122;9.952;2022-11-09T07:52:48;99771.63;;;13.78;85.57
13705;BME280;6924;52.122;9.952;2022-11-09T07:55:15;99784.50;;;13.88;85.54
13705;BME280;6924;52.122;9.952;2022-11-09T07:57:42;99780.72;;;13.96;85.05
13705;BME280;6924;52.122;9.952;2022-11-09T08:00:09;99783.06;;;14.06;84.88
13705;BME280;6924;52.122;9.952;2022-11-09T08:02:37;99785.22;;;14.10;84.45
13705;BME280;6924;52.122;9.952;2022-11-09T08:05:04;99786.84;;;14.11;84.00
13705;BME280;6924;52.122;9.952;2022-11-09T08:07:31;99786.97;;;14.14;83.57
13705;BME280;6924;52.122;9.952;2022-11-09T08:09:58;99786.16;;;14.14;84.18
13705;BME280;6924;52.122;9.952;2022-11-09T08:12:25;99790.16;;;14.25;84.12
13705;BME280;6924;52.122;9.952;2022-11-09T08:14:51;99779.00;;;14.32;83.72
13705;BME280;6924;52.122;9.952;2022-11-09T08:17:18;99786.44;;;14.37;83.17
13705;BME280;6924;52.122;9.952;2022-11-09T08:19:45;99790.03;;;14.34;83.02
13705;BME280;6924;52.122;9.952;2022-11-09T08:22:12;99786.91;;;14.39;83.05
13705;BME280;6924;52.122;9.952;2022-11-09T08:24:38;99789.41;;;14.40;83.35
13705;BME280;6924;52.122;9.952;2022-11-09T08:27:05;99781.97;;;14.36;83.07
13705;BME280;6924;52.122;9.952;2022-11-09T08:29:31;99781.56;;;14.37;83.38
13705;BME280;6924;52.122;9.952;2022-11-09T08:31:58;99783.72;;;14.40;82.87
13705;BME280;6924;52.122;9.952;2022-11-09T08:34:24;99790.81;;;14.46;82.54
13705;BME280;6924;52.122;9.952;2022-11-09T08:36:53;99798.44;;;14.30;82.55
13705;BME280;6924;52.122;9.952;2022-11-09T08:39:21;99796.19;;;14.23;82.76
13705;BME280;6924;52.122;9.952;2022-11-09T08:41:47;99794.28;;;14.27;83.11
13705;BME280;6924;52.122;9.952;2022-11-09T08:44:14;99799.72;;;14.33;83.14
13705;BME280;6924;52.122;9.952;2022-11-09T08:46:40;99808.50;;;14.27;83.82
13705;BME280;6924;52.122;9.952;2022-11-09T08:49:07;99812.91;;;14.25;87.08
13705;BME280;6924;52.122;9.952;2022-11-09T08:51:33;99808.50;;;14.27;88.84
13705;BME280;6924;52.122;9.952;2022-11-09T08:54:01;99805.56;;;14.24;89.87
13705;BME280;6924;52.122;9.952;2022-11-09T08:56:28;99818.38;;;14.18;89.09
13705;BME280;6924;52.122;9.952;2022-11-09T08:58:54;99800.94;;;14.19;88.15
13705;BME280;6924;52.122;9.952;2022-11-09T09:01:21;99816.00;;;14.20;88.48
13705;BME280;6924;52.122;9.952;2022-11-09T09:03:49;99808.88;;;14.26;88.23
13705;BME280;6924;52.122;9.952;2022-11-09T09:06:16;99809.59;;;14.23;87.89
13705;BME280;6924;52.122;9.952;2022-11-09T09:08:42;99805.19;;;14.25;87.60
13705;BME280;6924;52.122;9.952;2022-11-09T09:11:10;99793.47;;;14.27;88.24
13705;BME280;6924;52.122;9.952;2022-11-09T09:13:37;99791.31;;;14.36;86.94
13705;BME280;6924;52.122;9.952;2022-11-09T09:16:10;99792.72;;;14.42;85.45
13705;BME280;6924;52.122;9.952;2022-11-09T09:18:37;99801.13;;;14.51;85.14
13705;BME280;6924;52.122;9.952;2022-11-09T09:21:05;99785.09;;;14.59;85.43
13705;BME280;6924;52.122;9.952;2022-11-09T09:23:32;99796.34;;;14.67;84.67
13705;BME280;6924;52.122;9.952;2022-11-09T09:25:58;99781.97;;;14.76;84.17
13705;BME280;6924;52.122;9.952;2022-11-09T09:28:26;99784.28;;;14.86;82.19
13705;BME280;6924;52.122;9.952;2022-11-09T09:30:53;99785.69;;;14.93;81.44
13705;BME280;6924;52.122;9.952;2022-11-09T09:33:19;99795.38;;;15.04;81.17
13705;BME280;6924;52.122;9.952;2022-11-09T09:35:46;99787.47;;;15.13;81.31
13705;BME280;6924;52.122;9.952;2022-11-09T09:38:12;99807.59;;;15.20;79.81
13705;BME280;6924;52.122;9.952;2022-11-09T09:40:42;99807.78;;;15.27;79.27
13705;BME280;6924;52.122;9.952;2022-11-09T09:43:16;99828.66;;;15.32;78.22
13705;BME280;6924;52.122;9.952;2022-11-09T09:45:51;99841.63;;;15.29;78.27
13705;BME280;6924;52.122;9.952;2022-11-09T09:48:28;99833.19;;;15.33;79.92
13705;BME280;6924;52.122;9.952;2022-11-09T09:50:59;99831.47;;;15.44;81.26
13705;BME280;6924;52.122;9.952;2022-11-09T09:53:31;99822.56;;;15.61;82.77
13705;BME280;6924;52.122;9.952;2022-11-09T09:56:02;99839.16;;;15.87;82.30
13705;BME280;6924;52.122;9.952;2022-11-09T09:58:31;99843.00;;;15.95;80.74
13705;BME280;6924;52.122;9.952;2022-11-09T10:01:05;99839.03;;;15.84;79.25
13705;BME280;6924;52.122;9.952;2022-11-09T10:03:32;99844.72;;;15.68;82.63
13705;BME280;6924;52.122;9.952;2022-11-09T10:06:05;99851.69;;;15.11;86.44
13705;BME280;6924;52.122;9.952;2022-11-09T10:08:43;99853.47;;;14.75;90.28
13705;BME280;6924;52.122;9.952;2022-11-09T10:11:19;99849.72;;;14.71;90.50
13705;BME280;6924;52.122;9.952;2022-11-09T10:14:01;99860.88;;;14.63;93.59
13705;BME280;6924;52.122;9.952;2022-11-09T10:16:37;99857.41;;;14.70;93.61
13705;BME280;6924;52.122;9.952;2022-11-09T10:19:28;99846.88;;;14.71;94.29
13705;BME280;6924;52.122;9.952;2022-11-09T10:22:04;99845.94;;;14.66;94.76
13705;BME280;6924;52.122;9.952;2022-11-09T10:24:39;99846.63;;;14.63;94.92
13705;BME280;6924;52.122;9.952;2022-11-09T10:27:21;99850.56;;;14.59;95.33
13705;BME280;6924;52.122;9.952;2022-11-09T10:29:50;99860.19;;;14.42;96.37
13705;BME280;6924;52.122;9.952;2022-11-09T10:32:19;99863.16;;;14.21;96.29
13705;BME280;6924;52.122;9.952;2022-11-09T10:34:52;99870.75;;;14.17;98.26
13705;BME280;6924;52.122;9.952;2022-11-09T10:37:21;99874.63;;;14.00;97.30
13705;BME280;6924;52.122;9.952;2022-11-09T10:39:53;99882.19;;;13.71;96.88
13705;BME280;6924;52.122;9.952;2022-11-09T10:42:21;99872.56;;;13.51;97.05
13705;BME280;6924;52.122;9.952;2022-11-09T10:44:48;99873.28;;;13.48;96.96
13705;BME280;6924;52.122;9.952;2022-11-09T10:47:15;99866.50;;;13.28;98.34
13705;BME280;6924;52.122;9.952;2022-11-09T10:49:44;99864.94;;;13.31;99.14
13705;BME280;6924;52.122;9.952;2022-11-09T10:52:31;99847.72;;;13.27;100.00
13705;BME280;6924;52.122;9.952;2022-11-09T10:55:31;99845.41;;;13.29;100.00
13705;BME280;6924;52.122;9.952;2022-11-09T10:58:10;99844.34;;;13.34;100.00
13705;BME280;6924;52.122;9.952;2022-11-09T11:00:54;99846.28;;;13.42;100.00
13705;BME280;6924;52.122;9.952;2022-11-09T11:03:22;99846.19;;;13.51;100.00
13705;BME280;6924;52.122;9.952;2022-11-09T11:05:55;99846.19;;;13.51;100.00
13705;BME280;6924;52.122;9.952;2022-11-09T11:08:32;99837.91;;;13.58;100.00
13705;BME280;6924;52.122;9.952;2022-11-09T11:11:07;99839.13;;;13.69;100.00
13705;BME280;6924;52.122;9.952;2022-11-09T11:13:34;99847.75;;;13.60;98.95
13705;BME280;6924;52.122;9.952;2022-11-09T11:16:12;99841.25;;;13.72;99.88
13705;BME280;6924;52.122;9.952;2022-11-09T11:18:43;99835.53;;;13.60;98.61
13705;BME280;6924;52.122;9.952;2022-11-09T11:21:14;99842.41;;;13.59;100.00
13705;BME280;6924;52.122;9.952;2022-11-09T11:23:42;99843.38;;;13.75;99.78
13705;BME280;6924;52.122;9.952;2022-11-09T11:26:26;99836.03;;;13.74;99.09
13705;BME280;6924;52.122;9.952;2022-11-09T11:28:59;99841.47;;;13.79;100.00
13705;BME280;6924;52.122;9.952;2022-11-09T11:31:26;99839.25;;;13.85;98.59
13705;BME280;6924;52.122;9.952;2022-11-09T11:33:54;99835.09;;;13.70;97.88
13705;BME280;6924;52.122;9.952;2022-11-09T11:36:31;99838.41;;;13.72;99.02
13705;BME280;6924;52.122;9.952;2022-11-09T11:39:09;99835.31;;;13.77;98.24
13705;BME280;6924;52.122;9.952;2022-11-09T11:42:01;99835.81;;;13.92;98.83
13705;BME280;6924;52.122;9.952;2022-11-09T11:44:45;99837.81;;;14.03;98.62
13705;BME280;6924;52.122;9.952;2022-11-09T11:47:23;99837.59;;;13.96;96.19
13705;BME280;6924;52.122;9.952;2022-11-09T11:50:00;99837.09;;;13.94;96.33
13705;BME280;6924;52.122;9.952;2022-11-09T11:52:39;99823.59;;;14.03;97.74
13705;BME280;6924;52.122;9.952;2022-11-09T11:55:25;99834.13;;;14.15;98.10
13705;BME280;6924;52.122;9.952;2022-11-09T11:58:10;99836.84;;;13.99;96.76
13705;BME280;6924;52.122;9.952;2022-11-09T12:00:45;99854.28;;;14.10;97.67
13705;BME280;6924;52.122;9.952;2022-11-09T12:03:29;99820.28;;;14.14;98.32
13705;BME280;6924;52.122;9.952;2022-11-09T12:06:23;99849.06;;;14.24;98.65
13705;BME280;6924;52.122;9.952;2022-11-09T12:09:05;99826.66;;;14.23;98.52
13705;BME280;6924;52.122;9.952;2022-11-09T12:11:46;99826.44;;;14.03;100.00
13705;BME280;6924;52.122;9.952;2022-11-09T12:14:23;99833.19;;;13.99;98.30
13705;BME280;6924;52.122;9.952;2022-11-09T12:16:57;99840.91;;;13.98;98.61
13705;BME280;6924;52.122;9.952;2022-11-09T12:19:40;99830.47;;;14.02;99.19
13705;BME280;6924;52.122;9.952;2022-11-09T12:22:12;99834.03;;;14.12;99.41
13705;BME280;6924;52.122;9.952;2022-11-09T12:24:51;99838.38;;;14.21;98.82
13705;BME280;6924;52.122;9.952;2022-11-09T12:27:44;99834.25;;;14.19;97.37
13705;BME280;6924;52.122;9.952;2022-11-09T12:30:18;99834.72;;;14.09;100.00
13705;BME280;6924;52.122;9.952;2022-11-09T12:32:52;99831.53;;;14.10;98.83
13705;BME280;6924;52.122;9.952;2022-11-09T12:35:28;99830.94;;;14.04;99.72
13705;BME280;6924;52.122;9.952;2022-11-09T12:38:02;99833.78;;;14.17;99.19
13705;BME280;6924;52.122;9.952;2022-11-09T12:40:33;99834.03;;;14.12;98.05
13705;BME280;6924;52.122;9.952;2022-11-09T12:43:04;99831.06;;;13.96;98.28
13705;BME280;6924;52.122;9.952;2022-11-09T12:45:37;99834.72;;;14.09;97.75
13705;BME280;6924;52.122;9.952;2022-11-09T12:48:10;99830.94;;;14.04;98.27
13705;BME280;6924;52.122;9.952;2022-11-09T12:50:40;99837.59;;;13.96;100.00
13705;BME280;6924;52.122;9.952;2022-11-09T12:53:08;99844.44;;;14.08;100.00
13705;BME280;6924;52.122;9.952;2022-11-09T12:55:41;99849.66;;;14.18;100.00
13705;BME280;6924;52.122;9.952;2022-11-09T12:58:19;99838.75;;;14.08;97.93
13705;BME280;6924;52.122;9.952;2022-11-09T13:00:49;99845.41;;;14.12;98.68
13705;BME280;6924;52.122;9.952;2022-11-09T13:03:24;99840.41;;;14.21;98.17
13705;BME280;6924;52.122;9.952;2022-11-09T13:06:20;99831.19;;;13.99;98.06
13705;BME280;6924;52.122;9.952;2022-11-09T13:09:00;99845.03;;;14.01;97.34
13705;BME280;6924;52.122;9.952;2022-11-09T13:11:36;99847.53;;;14.02;97.01
13705;BME280;6924;52.122;9.952;2022-11-09T13:14:34;99850.97;;;14.08;98.00
13705;BME280;6924;52.122;9.952;2022-11-09T13:20:39;99846.56;;;14.11;98.46
13705;BME280;6924;52.122;9.952;2022-11-09T13:23:28;99835.66;;;14.13;99.56
13705;BME280;6924;52.122;9.952;2022-11-09T13:25:54;99839.13;;;14.18;99.40